createdAt,value
2019-03-08T00:00:04.118Z,2.73
2019-03-08T00:02:30.770Z,2.73
2019-03-08T00:04:57.303Z,2.37
2019-03-08T00:07:23.818Z,2.90
2019-03-08T00:09:50.653Z,2.50
2019-03-08T00:12:17.300Z,2.73
2019-03-08T00:14:43.965Z,2.53
2019-03-08T00:17:10.597Z,2.97
2019-03-08T00:19:37.239Z,2.07
2019-03-08T00:22:06.162Z,2.60
2019-03-08T00:24:32.839Z,1.90
2019-03-08T00:26:59.765Z,2.40
2019-03-08T00:29:26.280Z,2.50
2019-03-08T00:31:52.905Z,2.20
2019-03-08T00:34:19.440Z,2.13
2019-03-08T00:36:46.063Z,2.30
2019-03-08T00:39:12.698Z,2.57
2019-03-08T00:41:39.318Z,2.40
2019-03-08T00:44:06.262Z,2.27
2019-03-08T00:46:32.886Z,2.20
2019-03-08T00:48:59.539Z,2.53
2019-03-08T00:51:26.075Z,1.97
2019-03-08T00:53:52.799Z,1.93
2019-03-08T00:56:19.329Z,1.93
2019-03-08T00:58:45.959Z,2.70
2019-03-08T01:01:12.590Z,2.03
2019-03-08T01:03:39.237Z,2.20
2019-03-08T01:06:05.869Z,1.93
2019-03-08T01:08:32.403Z,2.10
2019-03-08T01:10:58.934Z,2.20
2019-03-08T01:13:25.590Z,1.70
2019-03-08T01:15:52.262Z,2.13
2019-03-08T01:18:18.883Z,2.37
2019-03-08T01:20:45.825Z,2.57
2019-03-08T01:23:12.482Z,2.40
2019-03-08T01:25:39.121Z,2.00
2019-03-08T01:28:07.992Z,2.03
2019-03-08T01:30:35.214Z,2.50
2019-03-08T01:33:01.848Z,2.37
2019-03-08T01:35:28.471Z,2.40
2019-03-08T01:37:55.109Z,1.80
2019-03-08T01:40:21.928Z,2.17
2019-03-08T01:42:48.556Z,1.73
2019-03-08T01:45:15.320Z,1.67
2019-03-08T01:47:41.944Z,1.80
2019-03-08T01:50:08.784Z,2.43
2019-03-08T01:52:35.317Z,2.20
2019-03-08T01:55:02.285Z,1.70
2019-03-08T01:57:28.952Z,1.83
2019-03-08T01:59:55.571Z,2.07
2019-03-08T02:02:31.129Z,1.93
2019-03-08T02:04:57.897Z,1.60
2019-03-08T02:07:24.616Z,1.80
2019-03-08T02:09:51.658Z,1.80
2019-03-08T02:12:18.294Z,1.87
2019-03-08T02:14:44.948Z,1.60
2019-03-08T02:17:11.599Z,1.33
2019-03-08T02:19:38.220Z,1.97
2019-03-08T02:22:04.984Z,1.60
2019-03-08T02:24:31.519Z,1.67
2019-03-08T02:26:58.444Z,1.50
2019-03-08T02:29:24.955Z,1.80
2019-03-08T02:31:51.584Z,1.63
2019-03-08T02:34:18.311Z,1.70
2019-03-08T02:36:44.840Z,1.60
2019-03-08T02:39:11.497Z,1.90
2019-03-08T02:41:38.120Z,1.70
2019-03-08T02:44:05.254Z,1.40
2019-03-08T02:46:31.880Z,1.40
2019-03-08T02:48:58.515Z,1.47
2019-03-08T02:51:25.038Z,1.20
2019-03-08T02:53:51.731Z,1.50
2019-03-08T02:56:18.374Z,1.70
2019-03-08T02:58:44.896Z,2.13
2019-03-08T03:01:11.839Z,1.27
2019-03-08T03:03:38.458Z,1.53
2019-03-08T03:06:05.233Z,1.40
2019-03-08T03:08:31.887Z,1.70
2019-03-08T03:10:58.616Z,1.60
2019-03-08T03:13:25.233Z,1.33
2019-03-08T03:15:52.002Z,1.27
2019-03-08T03:18:18.825Z,1.57
2019-03-08T03:20:45.387Z,1.27
2019-03-08T03:23:11.914Z,1.30
2019-03-08T03:25:38.442Z,0.90
2019-03-08T03:28:04.966Z,1.13
2019-03-08T03:30:31.495Z,1.20
2019-03-08T03:32:58.361Z,1.20
2019-03-08T03:35:25.086Z,0.90
2019-03-08T03:37:51.899Z,0.83
2019-03-08T03:40:18.647Z,0.67
2019-03-08T03:42:45.424Z,0.70
2019-03-08T03:45:12.182Z,0.50
2019-03-08T03:47:38.816Z,0.43
2019-03-08T03:50:06.689Z,0.63
2019-03-08T03:52:33.218Z,0.57
2019-03-08T03:54:59.963Z,0.80
2019-03-08T03:57:26.498Z,0.47
2019-03-08T03:59:53.058Z,0.60
2019-03-08T04:02:19.717Z,3.00
2019-03-08T04:04:46.351Z,0.60
2019-03-08T04:07:12.992Z,0.63
2019-03-08T04:09:39.754Z,0.50
2019-03-08T04:12:06.444Z,0.60
2019-03-08T04:14:33.095Z,0.70
2019-03-08T04:16:59.699Z,0.60
2019-03-08T04:19:26.322Z,0.30
2019-03-08T04:21:52.977Z,0.50
2019-03-08T04:24:19.524Z,0.23
2019-03-08T04:26:46.148Z,0.40
2019-03-08T04:29:12.782Z,0.80
2019-03-08T04:31:39.418Z,0.40
2019-03-08T04:34:06.142Z,0.43
2019-03-08T04:36:32.671Z,0.67
2019-03-08T04:38:59.417Z,0.43
2019-03-08T04:41:26.134Z,0.43
2019-03-08T04:43:52.987Z,0.33
2019-03-08T04:46:20.047Z,0.83
2019-03-08T04:48:46.784Z,0.50
2019-03-08T04:51:13.517Z,0.50
2019-03-08T04:53:41.222Z,0.33
2019-03-08T04:56:08.189Z,0.50
2019-03-08T04:58:34.832Z,0.43
2019-03-08T05:01:01.526Z,0.37
2019-03-08T05:03:28.383Z,0.47
2019-03-08T05:05:55.023Z,0.63
2019-03-08T05:08:21.746Z,0.40
2019-03-08T05:10:48.278Z,0.23
2019-03-08T05:13:14.943Z,0.90
2019-03-08T05:15:41.577Z,0.60
2019-03-08T05:18:08.279Z,0.30
2019-03-08T05:20:34.892Z,0.30
2019-03-08T05:23:01.579Z,0.53
2019-03-08T05:25:28.342Z,0.70
2019-03-08T05:27:55.104Z,0.40
2019-03-08T05:30:21.832Z,0.43
2019-03-08T05:32:48.466Z,0.53
2019-03-08T05:35:15.122Z,0.57
2019-03-08T05:37:41.853Z,0.40
2019-03-08T05:40:09.003Z,0.30
2019-03-08T05:42:35.774Z,0.53
2019-03-08T05:45:02.485Z,0.63
2019-03-08T05:47:29.016Z,0.87
2019-03-08T05:49:55.544Z,0.60
2019-03-08T05:52:22.259Z,0.50
2019-03-08T05:54:48.904Z,0.40
2019-03-08T05:57:15.752Z,0.30
2019-03-08T05:59:42.380Z,0.70
2019-03-08T06:02:09.096Z,0.50
2019-03-08T06:04:35.645Z,0.53
2019-03-08T06:07:02.557Z,0.40
2019-03-08T06:09:29.212Z,0.60
2019-03-08T06:11:55.772Z,0.40
2019-03-08T06:14:22.314Z,0.50
2019-03-08T06:16:48.955Z,0.53
2019-03-08T06:19:15.480Z,0.40
2019-03-08T06:21:42.031Z,0.60
2019-03-08T06:24:08.801Z,0.53
2019-03-08T06:26:35.444Z,0.67
2019-03-08T06:29:01.991Z,0.30
2019-03-08T06:31:28.515Z,0.60
2019-03-08T06:33:55.192Z,0.60
2019-03-08T06:36:21.827Z,0.47
2019-03-08T06:38:48.362Z,0.40
2019-03-08T06:41:15.013Z,0.53
2019-03-08T06:43:41.566Z,0.50
2019-03-08T06:46:08.226Z,0.60
2019-03-08T06:48:34.965Z,0.80
2019-03-08T06:51:01.534Z,0.23
2019-03-08T06:53:28.472Z,0.50
2019-03-08T06:55:55.163Z,0.50
2019-03-08T06:58:31.607Z,0.33
2019-03-08T07:01:10.002Z,0.30
2019-03-08T07:03:36.564Z,0.40
2019-03-08T07:06:03.625Z,0.47
2019-03-08T07:08:30.196Z,0.47
2019-03-08T07:10:56.821Z,0.50
2019-03-08T07:13:23.552Z,0.50
2019-03-08T07:15:50.098Z,0.60
2019-03-08T07:18:16.749Z,0.40
2019-03-08T07:20:48.575Z,0.40
2019-03-08T07:23:27.671Z,0.50
2019-03-08T07:26:07.834Z,0.80
2019-03-08T07:28:44.531Z,0.70
2019-03-08T07:31:23.883Z,0.50
2019-03-08T07:34:11.117Z,0.60
2019-03-08T07:36:54.505Z,0.50
2019-03-08T07:39:52.799Z,0.43
2019-03-08T07:42:37.664Z,0.50
2019-03-08T07:45:17.880Z,0.50
2019-03-08T07:48:04.170Z,0.60
2019-03-08T07:50:57.115Z,0.60
2019-03-08T07:53:58.635Z,0.40
2019-03-08T07:56:33.176Z,0.50
2019-03-08T07:59:19.370Z,0.43
2019-03-08T08:02:11.678Z,0.50
2019-03-08T08:04:47.655Z,0.50
2019-03-08T08:07:20.861Z,0.37
2019-03-08T08:10:05.645Z,0.50
2019-03-08T08:12:51.828Z,0.30
2019-03-08T08:15:40.818Z,0.30
2019-03-08T08:18:30.157Z,0.30
2019-03-08T08:21:10.116Z,0.20
2019-03-08T08:24:11.685Z,0.30
2019-03-08T08:27:00.746Z,0.20
2019-03-08T08:29:47.476Z,0.30
2019-03-08T08:32:36.454Z,0.20
2019-03-08T08:35:11.129Z,0.40
2019-03-08T08:37:51.289Z,0.20
2019-03-08T08:40:42.718Z,0.10
2019-03-08T08:43:15.289Z,0.20
2019-03-08T08:45:50.833Z,0.20
2019-03-08T08:48:26.994Z,0.10
2019-03-08T08:51:03.724Z,0.30
2019-03-08T08:53:36.453Z,0.10
2019-03-08T08:56:21.551Z,0.10
2019-03-08T08:59:16.604Z,0.10
2019-03-08T09:02:01.895Z,0.10
2019-03-08T09:04:46.681Z,0.20
2019-03-08T09:07:45.440Z,0.43
2019-03-08T09:10:24.964Z,0.10
2019-03-08T09:12:59.989Z,0.20
2019-03-08T09:15:44.337Z,0.40
2019-03-08T09:18:29.862Z,0.10
2019-03-08T09:21:22.542Z,0.23
2019-03-08T09:23:58.998Z,0.30
2019-03-08T09:26:48.141Z,0.30
2019-03-08T09:29:24.839Z,0.20
2019-03-08T09:32:06.022Z,0.30
2019-03-08T09:35:01.868Z,0.10
2019-03-08T09:37:44.231Z,0.10
2019-03-08T09:40:33.307Z,0.20
2019-03-08T09:43:18.857Z,0.30
2019-03-08T09:46:13.849Z,0.20
2019-03-08T09:49:02.556Z,0.27
2019-03-08T09:51:47.763Z,0.53
2019-03-08T09:54:46.275Z,0.40
2019-03-08T09:57:31.720Z,0.30
2019-03-08T10:00:07.359Z,0.47
2019-03-08T10:02:45.996Z,0.13
2019-03-08T10:05:35.337Z,0.20
2019-03-08T10:08:24.583Z,0.17
2019-03-08T10:11:09.169Z,0.20
2019-03-08T10:13:44.783Z,0.30
2019-03-08T10:16:16.569Z,0.50
2019-03-08T10:19:15.310Z,0.17
2019-03-08T10:22:08.173Z,0.20
2019-03-08T10:24:57.371Z,0.30
2019-03-08T10:27:49.752Z,0.30
2019-03-08T10:30:33.899Z,0.20
2019-03-08T10:33:32.796Z,0.20
2019-03-08T10:36:17.480Z,0.30
2019-03-08T10:39:02.536Z,0.20
2019-03-08T10:42:01.455Z,0.20
2019-03-08T10:44:34.942Z,0.20
2019-03-08T10:47:38.195Z,0.20
2019-03-08T10:50:25.537Z,0.10
2019-03-08T10:53:22.906Z,0.43
2019-03-08T10:56:06.316Z,0.43
2019-03-08T10:59:01.381Z,0.20
2019-03-08T11:01:35.262Z,0.20
2019-03-08T11:04:18.185Z,0.20
2019-03-08T11:07:04.007Z,0.20
2019-03-08T11:10:13.753Z,0.20
2019-03-08T11:13:13.462Z,0.20
2019-03-08T11:15:52.017Z,0.30
2019-03-08T11:18:29.017Z,0.10
2019-03-08T11:21:31.307Z,0.40
2019-03-08T11:24:26.800Z,0.40
2019-03-08T11:27:24.820Z,0.20
2019-03-08T11:30:02.759Z,0.23
2019-03-08T11:32:59.467Z,0.17
2019-03-08T11:35:32.514Z,0.20
2019-03-08T11:38:19.887Z,0.20
2019-03-08T11:40:58.143Z,0.20
2019-03-08T11:43:34.224Z,0.30
2019-03-08T11:46:16.704Z,0.30
2019-03-08T11:49:08.546Z,0.20
2019-03-08T11:52:07.918Z,0.20
2019-03-08T11:54:53.419Z,0.20
2019-03-08T11:57:40.205Z,0.30
2019-03-08T12:00:28.893Z,0.30
2019-03-08T12:03:16.243Z,0.13
2019-03-08T12:06:01.483Z,0.27
2019-03-08T12:08:51.832Z,0.20
2019-03-08T12:11:27.981Z,0.40
2019-03-08T12:14:12.257Z,0.20
2019-03-08T12:17:04.900Z,0.30
2019-03-08T12:19:39.928Z,0.20
2019-03-08T12:22:15.907Z,0.10
2019-03-08T12:24:51.965Z,0.17
2019-03-08T12:27:26.509Z,0.50
2019-03-08T12:30:13.081Z,0.10
2019-03-08T12:32:51.337Z,0.20
2019-03-08T12:35:35.984Z,0.30
2019-03-08T12:38:44.832Z,0.30
2019-03-08T12:41:28.750Z,0.20
2019-03-08T12:44:18.896Z,0.40
2019-03-08T12:47:07.749Z,0.23
2019-03-08T12:50:04.533Z,0.10
2019-03-08T12:52:53.874Z,0.20
2019-03-08T12:55:36.493Z,0.47
2019-03-08T12:58:21.872Z,0.30
2019-03-08T13:01:13.139Z,0.20
2019-03-08T13:04:03.751Z,0.20
2019-03-08T13:06:39.867Z,0.20
2019-03-08T13:09:29.115Z,0.27
2019-03-08T13:12:01.572Z,0.10
2019-03-08T13:14:28.299Z,0.37
2019-03-08T13:16:55.192Z,0.20
2019-03-08T13:19:21.977Z,0.30
2019-03-08T13:21:49.054Z,0.37
2019-03-08T13:24:16.008Z,0.27
2019-03-08T13:26:42.789Z,0.30
2019-03-08T13:29:09.594Z,0.20
2019-03-08T13:31:42.180Z,0.27
2019-03-08T13:34:09.129Z,0.20
2019-03-08T13:36:44.451Z,0.30
2019-03-08T13:39:11.922Z,0.20
2019-03-08T13:41:38.597Z,0.30
2019-03-08T13:44:09.170Z,0.20
2019-03-08T13:46:37.608Z,0.30
2019-03-08T13:49:07.225Z,0.20
2019-03-08T13:51:34.147Z,0.20
2019-03-08T13:54:01.072Z,0.30
2019-03-08T13:56:27.606Z,0.20
2019-03-08T13:58:54.256Z,0.20
2019-03-08T14:01:22.466Z,0.20
2019-03-08T14:03:49.116Z,0.20
2019-03-08T14:06:15.873Z,0.37
2019-03-08T14:08:42.703Z,0.30
2019-03-08T14:11:09.468Z,0.20
2019-03-08T14:13:36.101Z,0.20
2019-03-08T14:16:02.743Z,0.20
2019-03-08T14:18:29.468Z,0.40
2019-03-08T14:20:56.113Z,0.30
2019-03-08T14:23:22.753Z,0.20
2019-03-08T14:25:49.777Z,0.20
2019-03-08T14:28:16.417Z,0.30
2019-03-08T14:31:02.746Z,0.53
2019-03-08T14:33:29.294Z,0.13
2019-03-08T14:35:55.931Z,0.67
2019-03-08T14:38:22.959Z,0.20
2019-03-08T14:40:57.517Z,0.30
2019-03-08T14:43:28.418Z,0.30
2019-03-08T14:46:00.030Z,0.20
2019-03-08T14:48:26.577Z,0.40
2019-03-08T14:50:53.108Z,0.20
2019-03-08T14:53:19.725Z,0.23
2019-03-08T14:55:46.287Z,0.20
2019-03-08T14:58:14.917Z,0.40
2019-03-08T15:00:41.547Z,0.20
2019-03-08T15:03:10.783Z,0.30
2019-03-08T15:05:37.641Z,0.20
2019-03-08T15:08:04.355Z,0.27
2019-03-08T15:10:39.124Z,0.20
2019-03-08T15:12:59.688Z,0.40
2019-03-08T15:15:26.323Z,0.70
2019-03-08T15:17:53.657Z,0.33
2019-03-08T15:20:21.612Z,0.30
2019-03-08T15:22:48.747Z,0.20
2019-03-08T15:25:15.566Z,0.40
2019-03-08T15:27:42.308Z,0.30
2019-03-08T15:30:11.292Z,0.20
2019-03-08T15:32:37.929Z,0.27
2019-03-08T15:35:05.740Z,0.37
2019-03-08T15:37:32.642Z,0.40
2019-03-08T15:39:59.162Z,0.60
2019-03-08T15:42:36.276Z,0.20
2019-03-08T15:45:05.840Z,0.40
2019-03-08T15:47:32.689Z,0.30
2019-03-08T15:50:04.560Z,0.33
2019-03-08T15:52:29.715Z,0.37
2019-03-08T15:54:56.261Z,0.30
2019-03-08T15:57:22.918Z,0.30
2019-03-08T15:59:49.463Z,0.30
2019-03-08T16:02:16.224Z,0.27
2019-03-08T16:04:45.799Z,0.30
2019-03-08T16:07:11.707Z,0.50
2019-03-08T16:09:38.391Z,0.30
2019-03-08T16:12:05.017Z,0.20
2019-03-08T16:14:31.731Z,0.23
2019-03-08T16:16:58.378Z,0.20
2019-03-08T16:19:26.183Z,0.20
2019-03-08T16:21:52.952Z,0.30
2019-03-08T16:24:19.682Z,0.20
2019-03-08T16:26:46.323Z,0.30
2019-03-08T16:29:12.982Z,0.20
2019-03-08T16:31:45.750Z,0.10
2019-03-08T16:34:12.890Z,0.20
2019-03-08T16:36:47.272Z,0.10
2019-03-08T16:39:19.436Z,0.13
2019-03-08T16:42:04.546Z,0.10
2019-03-08T16:45:05.903Z,0.17
2019-03-08T16:47:50.797Z,0.30
2019-03-08T16:50:31.336Z,0.30
2019-03-08T16:53:05.224Z,0.20
2019-03-08T16:55:39.435Z,0.20
2019-03-08T16:58:31.678Z,0.30
2019-03-08T17:01:20.662Z,0.20
2019-03-08T17:03:56.187Z,0.40
2019-03-08T17:06:54.491Z,0.30
2019-03-08T17:09:30.682Z,0.30
2019-03-08T17:12:05.149Z,0.30
2019-03-08T17:14:43.904Z,0.33
2019-03-08T17:17:21.530Z,0.50
2019-03-08T17:19:56.837Z,0.60
2019-03-08T17:22:43.139Z,0.50
2019-03-08T17:25:19.031Z,0.40
2019-03-08T17:28:09.977Z,0.33
2019-03-08T17:30:54.870Z,0.47
2019-03-08T17:33:33.100Z,0.47
2019-03-08T17:36:20.951Z,0.63
2019-03-08T17:38:52.539Z,0.57
2019-03-08T17:41:28.328Z,0.83
2019-03-08T17:44:17.339Z,0.67
2019-03-08T17:47:07.461Z,0.87
2019-03-08T17:50:05.592Z,0.40
2019-03-08T17:53:07.122Z,0.60
2019-03-08T17:55:51.556Z,0.60
2019-03-08T17:58:34.222Z,0.33
2019-03-08T18:01:23.347Z,0.50
2019-03-08T18:04:21.906Z,0.50
2019-03-08T18:07:14.004Z,0.53
2019-03-08T18:10:06.035Z,0.70
2019-03-08T18:13:07.841Z,0.80
2019-03-08T18:15:49.858Z,0.70
2019-03-08T18:18:35.208Z,0.60
2019-03-08T18:21:18.758Z,0.53
2019-03-08T18:24:01.542Z,0.53
2019-03-08T18:26:57.202Z,0.80
2019-03-08T18:29:34.966Z,0.60
2019-03-08T18:32:26.988Z,0.70
2019-03-08T18:35:20.688Z,0.90
2019-03-08T18:38:15.874Z,0.80
2019-03-08T18:41:02.068Z,0.67
2019-03-08T18:43:45.554Z,0.60
2019-03-08T18:46:43.315Z,0.60
2019-03-08T18:49:41.765Z,0.80
2019-03-08T18:52:43.424Z,0.93
2019-03-08T18:55:47.968Z,0.90
2019-03-08T18:58:30.283Z,0.90
2019-03-08T19:01:15.169Z,1.00
2019-03-08T19:04:00.672Z,1.77
2019-03-08T19:06:35.285Z,0.77
2019-03-08T19:09:36.843Z,0.93
2019-03-08T19:12:15.199Z,0.80
2019-03-08T19:14:50.788Z,0.90
2019-03-08T19:17:27.023Z,0.70
2019-03-08T19:20:28.355Z,0.70
2019-03-08T19:23:05.740Z,0.73
2019-03-08T19:25:40.190Z,0.70
2019-03-08T19:28:25.216Z,1.00
2019-03-08T19:31:15.726Z,0.60
2019-03-08T19:34:01.120Z,0.80
2019-03-08T19:36:45.409Z,0.73
2019-03-08T19:39:18.696Z,1.10
2019-03-08T19:42:00.261Z,0.90
2019-03-08T19:44:52.305Z,0.60
2019-03-08T19:47:50.806Z,0.90
2019-03-08T19:50:27.670Z,0.80
2019-03-08T19:53:10.370Z,0.60
2019-03-08T19:55:58.535Z,0.87
2019-03-08T19:58:32.241Z,1.03
2019-03-08T20:01:18.826Z,0.87
2019-03-08T20:04:01.334Z,1.27
2019-03-08T20:06:46.387Z,1.00
2019-03-08T20:09:32.868Z,0.90
2019-03-08T20:12:31.298Z,0.90
2019-03-08T20:15:23.679Z,0.60
2019-03-08T20:17:55.521Z,0.77
2019-03-08T20:20:32.021Z,0.63
2019-03-08T20:23:14.187Z,0.70
2019-03-08T20:26:05.118Z,1.00
2019-03-08T20:28:58.720Z,0.50
2019-03-08T20:31:43.798Z,0.80
2019-03-08T20:34:30.147Z,0.83
2019-03-08T20:37:05.932Z,0.60
2019-03-08T20:39:54.465Z,0.73
2019-03-08T20:42:39.695Z,0.90
2019-03-08T20:45:26.696Z,0.70
2019-03-08T20:47:53.425Z,0.63
2019-03-08T20:50:20.252Z,1.10
2019-03-08T20:52:47.028Z,0.80
2019-03-08T20:55:13.838Z,0.90
2019-03-08T20:57:40.593Z,1.07
2019-03-08T21:00:08.505Z,0.80
2019-03-08T21:02:35.082Z,0.90
2019-03-08T21:05:01.796Z,0.80
2019-03-08T21:07:34.503Z,0.93
2019-03-08T21:10:08.764Z,1.13
2019-03-08T21:12:37.462Z,1.20
2019-03-08T21:15:06.110Z,0.80
2019-03-08T21:17:33.187Z,1.33
2019-03-08T21:20:00.025Z,0.67
2019-03-08T21:22:27.541Z,0.70
2019-03-08T21:24:54.675Z,0.60
2019-03-08T21:27:21.807Z,1.00
2019-03-08T21:29:48.819Z,0.87
2019-03-08T21:32:16.059Z,1.03
2019-03-08T21:34:43.943Z,0.80
2019-03-08T21:37:11.371Z,1.07
2019-03-08T21:39:38.161Z,0.90
2019-03-08T21:42:04.953Z,1.00
2019-03-08T21:44:31.941Z,0.80
2019-03-08T21:46:58.712Z,0.73
2019-03-08T21:49:25.508Z,0.70
2019-03-08T21:51:54.602Z,0.83
2019-03-08T21:54:21.789Z,0.63
2019-03-08T21:56:49.548Z,1.13
2019-03-08T21:59:17.024Z,0.93
2019-03-08T22:01:43.785Z,1.17
2019-03-08T22:04:16.811Z,0.87
2019-03-08T22:06:44.085Z,1.30
2019-03-08T22:09:21.968Z,1.17
2019-03-08T22:11:48.960Z,1.03
2019-03-08T22:14:16.174Z,1.50
2019-03-08T22:16:43.096Z,1.30
2019-03-08T22:19:10.125Z,1.20
2019-03-08T22:21:37.100Z,1.00
2019-03-08T22:24:13.090Z,1.27
2019-03-08T22:26:33.406Z,1.20
2019-03-08T22:29:00.323Z,1.20
2019-03-08T22:31:27.253Z,1.30
2019-03-08T22:33:54.987Z,1.00
2019-03-08T22:36:22.316Z,1.23
2019-03-08T22:38:49.846Z,1.30
2019-03-08T22:41:17.484Z,1.30
2019-03-08T22:43:44.397Z,1.10
2019-03-08T22:46:11.446Z,1.00
2019-03-08T22:48:39.381Z,1.33
2019-03-08T22:51:08.025Z,1.17
2019-03-08T22:53:34.917Z,1.27
2019-03-08T22:56:01.982Z,1.03
2019-03-08T22:58:28.752Z,1.13
2019-03-08T23:01:13.070Z,1.40
2019-03-08T23:03:39.838Z,1.00
2019-03-08T23:06:06.474Z,0.90
2019-03-08T23:08:33.103Z,1.00
2019-03-08T23:10:59.843Z,1.07
2019-03-08T23:13:26.461Z,1.13
2019-03-08T23:15:53.227Z,1.10
2019-03-08T23:18:19.895Z,1.57
2019-03-08T23:20:46.639Z,1.10
2019-03-08T23:23:13.271Z,1.40
2019-03-08T23:25:39.917Z,1.63
2019-03-08T23:28:19.449Z,1.23
2019-03-08T23:30:47.831Z,1.30
2019-03-08T23:33:14.451Z,1.13
2019-03-08T23:35:41.123Z,1.30
2019-03-08T23:38:07.659Z,1.30
2019-03-08T23:40:34.300Z,1.30
2019-03-08T23:43:00.925Z,1.23
2019-03-08T23:45:27.628Z,1.20
2019-03-08T23:47:54.265Z,1.53
2019-03-08T23:50:21.188Z,1.53
2019-03-08T23:52:47.704Z,1.13
2019-03-08T23:55:14.350Z,1.70
2019-03-08T23:57:40.897Z,1.30
